sensor_id;sensor_type;location;lat;lon;timestamp;P1;P2;P0
73687;PMS7003;62257;48.376;-4.378;2022-07-29T00:01:05;13.50;13.00;10.50
73687;PMS7003;62257;48.376;-4.378;2022-07-29T00:03:31;15.75;14.75;12.00
73687;PMS7003;62257;48.376;-4.378;2022-07-29T00:05:56;18.75;17.00;11.00
73687;PMS7003;62257;48.376;-4.378;2022-07-29T00:08:22;14.00;14.00;11.25
73687;PMS7003;62257;48.376;-4.378;2022-07-29T00:10:47;18.75;13.75;10.75
73687;PMS7003;62257;48.376;-4.378;2022-07-29T00:13:13;19.25;17.25;13.00
73687;PMS7003;62257;48.376;-4.378;2022-07-29T00:15:38;17.75;17.25;11.00
73687;PMS7003;62257;48.376;-4.378;2022-07-29T00:18:04;17.50;16.50;12.50
73687;PMS7003;62257;48.376;-4.378;2022-07-29T00:20:29;14.50;13.00;10.50
73687;PMS7003;62257;48.376;-4.378;2022-07-29T00:22:55;20.25;16.00;11.50
73687;PMS7003;62257;48.376;-4.378;2022-07-29T00:25:20;14.25;13.75;10.00
73687;PMS7003;62257;48.376;-4.378;2022-07-29T00:27:46;19.75;19.00;14.00
73687;PMS7003;62257;48.376;-4.378;2022-07-29T00:30:11;18.00;18.00;13.75
73687;PMS7003;62257;48.376;-4.378;2022-07-29T00:32:37;19.75;19.75;13.75
73687;PMS7003;62257;48.376;-4.378;2022-07-29T00:35:03;19.00;17.75;13.50
73687;PMS7003;62257;48.376;-4.378;2022-07-29T00:37:47;17.00;17.00;13.50
73687;PMS7003;62257;48.376;-4.378;2022-07-29T00:40:13;15.00;14.25;12.00
73687;PMS7003;62257;48.376;-4.378;2022-07-29T00:42:45;18.50;15.25;12.00
73687;PMS7003;62257;48.376;-4.378;2022-07-29T00:45:12;17.50;15.00;11.75
73687;PMS7003;62257;48.376;-4.378;2022-07-29T00:47:38;18.25;16.50;12.25
73687;PMS7003;62257;48.376;-4.378;2022-07-29T00:50:04;19.75;18.00;14.00
73687;PMS7003;62257;48.376;-4.378;2022-07-29T00:52:30;17.25;17.00;13.00
73687;PMS7003;62257;48.376;-4.378;2022-07-29T00:54:56;24.25;21.50;14.50
73687;PMS7003;62257;48.376;-4.378;2022-07-29T00:57:22;24.25;21.75;16.75
73687;PMS7003;62257;48.376;-4.378;2022-07-29T00:59:48;22.25;21.25;16.00
73687;PMS7003;62257;48.376;-4.378;2022-07-29T01:02:13;24.50;18.50;12.75
73687;PMS7003;62257;48.376;-4.378;2022-07-29T01:04:39;20.00;19.50;14.25
73687;PMS7003;62257;48.376;-4.378;2022-07-29T01:07:05;28.00;20.50;14.75
73687;PMS7003;62257;48.376;-4.378;2022-07-29T01:09:31;20.25;18.75;13.75
73687;PMS7003;62257;48.376;-4.378;2022-07-29T01:11:58;20.25;16.75;12.25
73687;PMS7003;62257;48.376;-4.378;2022-07-29T01:14:24;19.00;16.50;13.00
73687;PMS7003;62257;48.376;-4.378;2022-07-29T01:17:08;18.75;18.50;13.50
73687;PMS7003;62257;48.376;-4.378;2022-07-29T01:19:48;18.75;18.75;14.25
73687;PMS7003;62257;48.376;-4.378;2022-07-29T01:30:25;22.25;20.25;14.50
73687;PMS7003;62257;48.376;-4.378;2022-07-29T01:33:01;19.75;18.25;15.00
73687;PMS7003;62257;48.376;-4.378;2022-07-29T01:35:40;18.50;17.00;13.00
73687;PMS7003;62257;48.376;-4.378;2022-07-29T01:38:11;18.50;18.50;13.50
73687;PMS7003;62257;48.376;-4.378;2022-07-29T01:44:35;20.50;18.00;13.00
73687;PMS7003;62257;48.376;-4.378;2022-07-29T01:46:48;18.50;15.75;13.00
73687;PMS7003;62257;48.376;-4.378;2022-07-29T01:49:23;20.50;20.00;14.75
73687;PMS7003;62257;48.376;-4.378;2022-07-29T01:57:07;19.00;18.00;14.50
73687;PMS7003;62257;48.376;-4.378;2022-07-29T01:59:36;20.25;18.75;13.75
73687;PMS7003;62257;48.376;-4.378;2022-07-29T02:02:03;19.75;18.00;12.25
73687;PMS7003;62257;48.376;-4.378;2022-07-29T02:04:31;19.00;18.75;15.00
73687;PMS7003;62257;48.376;-4.378;2022-07-29T02:07:00;18.00;18.00;12.00
73687;PMS7003;62257;48.376;-4.378;2022-07-29T02:09:29;21.25;18.25;14.00
73687;PMS7003;62257;48.376;-4.378;2022-07-29T02:11:56;21.00;17.25;11.00
73687;PMS7003;62257;48.376;-4.378;2022-07-29T02:14:24;19.75;19.50;13.25
73687;PMS7003;62257;48.376;-4.378;2022-07-29T02:16:52;18.75;18.50;12.50
73687;PMS7003;62257;48.376;-4.378;2022-07-29T02:19:19;23.25;19.75;12.50
73687;PMS7003;62257;48.376;-4.378;2022-07-29T02:21:48;18.25;17.00;11.50
73687;PMS7003;62257;48.376;-4.378;2022-07-29T02:24:16;21.75;19.25;14.50
73687;PMS7003;62257;48.376;-4.378;2022-07-29T02:26:43;22.50;20.50;16.75
73687;PMS7003;62257;48.376;-4.378;2022-07-29T02:29:10;22.00;19.25;14.50
73687;PMS7003;62257;48.376;-4.378;2022-07-29T02:31:37;19.25;18.00;13.00
73687;PMS7003;62257;48.376;-4.378;2022-07-29T02:34:05;22.50;20.50;14.00
73687;PMS7003;62257;48.376;-4.378;2022-07-29T02:36:32;22.00;21.50;15.00
73687;PMS7003;62257;48.376;-4.378;2022-07-29T02:38:58;20.25;19.25;14.00
73687;PMS7003;62257;48.376;-4.378;2022-07-29T02:41:30;23.00;19.50;14.00
73687;PMS7003;62257;48.376;-4.378;2022-07-29T02:44:03;21.75;19.25;15.75
73687;PMS7003;62257;48.376;-4.378;2022-07-29T02:46:34;23.00;21.25;14.25
73687;PMS7003;62257;48.376;-4.378;2022-07-29T02:49:04;19.75;19.50;15.00
73687;PMS7003;62257;48.376;-4.378;2022-07-29T02:52:18;18.00;18.00;14.75
73687;PMS7003;62257;48.376;-4.378;2022-07-29T02:56:58;19.75;18.50;15.00
73687;PMS7003;62257;48.376;-4.378;2022-07-29T02:59:28;19.00;19.00;14.50
73687;PMS7003;62257;48.376;-4.378;2022-07-29T03:01:57;23.25;19.00;14.50
73687;PMS7003;62257;48.376;-4.378;2022-07-29T03:04:25;22.75;20.75;14.50
73687;PMS7003;62257;48.376;-4.378;2022-07-29T03:06:53;22.00;21.00;16.25
73687;PMS7003;62257;48.376;-4.378;2022-07-29T03:09:19;26.00;23.50;17.00
73687;PMS7003;62257;48.376;-4.378;2022-07-29T03:11:46;22.50;20.25;15.75
73687;PMS7003;62257;48.376;-4.378;2022-07-29T03:14:12;23.00;19.25;15.00
73687;PMS7003;62257;48.376;-4.378;2022-07-29T03:16:38;18.50;17.00;13.00
73687;PMS7003;62257;48.376;-4.378;2022-07-29T03:19:04;24.00;21.25;13.75
73687;PMS7003;62257;48.376;-4.378;2022-07-29T03:21:30;21.50;18.25;15.00
73687;PMS7003;62257;48.376;-4.378;2022-07-29T03:23:56;21.50;17.75;14.00
73687;PMS7003;62257;48.376;-4.378;2022-07-29T03:26:21;22.25;20.75;14.25
73687;PMS7003;62257;48.376;-4.378;2022-07-29T03:28:47;26.50;21.25;15.50
73687;PMS7003;62257;48.376;-4.378;2022-07-29T03:31:12;24.00;24.00;16.50
73687;PMS7003;62257;48.376;-4.378;2022-07-29T03:33:38;25.25;21.25;16.25
73687;PMS7003;62257;48.376;-4.378;2022-07-29T03:36:03;24.25;20.75;15.00
73687;PMS7003;62257;48.376;-4.378;2022-07-29T03:38:29;22.75;20.00;16.75
73687;PMS7003;62257;48.376;-4.378;2022-07-29T03:40:58;25.75;24.50;17.00
73687;PMS7003;62257;48.376;-4.378;2022-07-29T03:43:32;23.00;21.00;16.50
73687;PMS7003;62257;48.376;-4.378;2022-07-29T03:46:00;22.25;21.75;15.75
73687;PMS7003;62257;48.376;-4.378;2022-07-29T03:48:28;23.75;22.00;15.00
73687;PMS7003;62257;48.376;-4.378;2022-07-29T03:50:57;23.00;21.00;15.50
73687;PMS7003;62257;48.376;-4.378;2022-07-29T03:53:23;23.75;23.50;17.50
73687;PMS7003;62257;48.376;-4.378;2022-07-29T03:55:50;31.25;25.00;17.50
73687;PMS7003;62257;48.376;-4.378;2022-07-29T03:58:19;26.00;24.00;15.00
73687;PMS7003;62257;48.376;-4.378;2022-07-29T04:00:45;32.25;28.50;21.00
73687;PMS7003;62257;48.376;-4.378;2022-07-29T04:03:12;23.00;22.25;17.50
73687;PMS7003;62257;48.376;-4.378;2022-07-29T04:05:38;26.25;23.75;17.75
73687;PMS7003;62257;48.376;-4.378;2022-07-29T04:08:04;23.25;21.75;17.00
73687;PMS7003;62257;48.376;-4.378;2022-07-29T04:10:29;28.75;25.00;17.00
73687;PMS7003;62257;48.376;-4.378;2022-07-29T04:12:55;25.25;24.00;16.75
73687;PMS7003;62257;48.376;-4.378;2022-07-29T04:15:20;25.25;24.25;18.00
73687;PMS7003;62257;48.376;-4.378;2022-07-29T04:17:46;24.75;24.75;17.50
73687;PMS7003;62257;48.376;-4.378;2022-07-29T04:20:11;32.75;23.75;16.50
73687;PMS7003;62257;48.376;-4.378;2022-07-29T04:22:38;24.25;23.25;16.50
73687;PMS7003;62257;48.376;-4.378;2022-07-29T04:25:04;24.50;22.75;15.00
73687;PMS7003;62257;48.376;-4.378;2022-07-29T04:27:30;23.00;21.50;15.50
73687;PMS7003;62257;48.376;-4.378;2022-07-29T04:29:55;25.25;24.25;15.75
73687;PMS7003;62257;48.376;-4.378;2022-07-29T04:32:21;25.75;22.50;17.00
73687;PMS7003;62257;48.376;-4.378;2022-07-29T04:34:46;30.75;25.25;18.75
73687;PMS7003;62257;48.376;-4.378;2022-07-29T04:37:12;22.75;22.25;17.75
73687;PMS7003;62257;48.376;-4.378;2022-07-29T04:39:37;24.75;23.75;18.25
73687;PMS7003;62257;48.376;-4.378;2022-07-29T04:42:03;22.75;22.00;18.00
73687;PMS7003;62257;48.376;-4.378;2022-07-29T04:44:28;29.00;27.75;18.25
73687;PMS7003;62257;48.376;-4.378;2022-07-29T04:46:54;28.50;26.25;18.50
73687;PMS7003;62257;48.376;-4.378;2022-07-29T04:49:19;24.00;23.00;17.00
73687;PMS7003;62257;48.376;-4.378;2022-07-29T04:51:45;28.25;26.25;18.00
73687;PMS7003;62257;48.376;-4.378;2022-07-29T04:54:10;27.25;23.25;17.75
73687;PMS7003;62257;48.376;-4.378;2022-07-29T04:56:35;30.75;27.50;18.75
73687;PMS7003;62257;48.376;-4.378;2022-07-29T04:59:01;27.00;25.00;17.50
73687;PMS7003;62257;48.376;-4.378;2022-07-29T05:01:26;28.50;25.25;19.00
73687;PMS7003;62257;48.376;-4.378;2022-07-29T05:03:52;30.50;26.25;19.00
73687;PMS7003;62257;48.376;-4.378;2022-07-29T05:06:17;31.00;26.75;18.50
73687;PMS7003;62257;48.376;-4.378;2022-07-29T05:08:43;26.75;25.25;19.00
73687;PMS7003;62257;48.376;-4.378;2022-07-29T05:11:08;23.50;23.00;17.00
73687;PMS7003;62257;48.376;-4.378;2022-07-29T05:13:33;25.50;24.75;17.50
73687;PMS7003;62257;48.376;-4.378;2022-07-29T05:15:59;24.75;23.50;17.25
73687;PMS7003;62257;48.376;-4.378;2022-07-29T05:18:25;25.25;22.75;18.00
73687;PMS7003;62257;48.376;-4.378;2022-07-29T05:20:50;21.25;20.75;15.75
73687;PMS7003;62257;48.376;-4.378;2022-07-29T05:23:16;23.75;23.75;16.00
73687;PMS7003;62257;48.376;-4.378;2022-07-29T05:25:41;28.00;26.00;19.00
73687;PMS7003;62257;48.376;-4.378;2022-07-29T05:28:07;30.00;26.75;17.25
73687;PMS7003;62257;48.376;-4.378;2022-07-29T05:30:32;31.50;27.50;18.00
73687;PMS7003;62257;48.376;-4.378;2022-07-29T05:32:58;29.25;26.75;17.75
73687;PMS7003;62257;48.376;-4.378;2022-07-29T05:35:23;27.00;26.50;18.00
73687;PMS7003;62257;48.376;-4.378;2022-07-29T05:37:48;30.50;28.75;19.00
73687;PMS7003;62257;48.376;-4.378;2022-07-29T05:40:14;33.00;26.75;18.00
73687;PMS7003;62257;48.376;-4.378;2022-07-29T05:42:39;29.00;25.75;17.50
73687;PMS7003;62257;48.376;-4.378;2022-07-29T05:45:05;28.00;27.00;20.00
73687;PMS7003;62257;48.376;-4.378;2022-07-29T05:47:31;29.75;27.75;18.00
73687;PMS7003;62257;48.376;-4.378;2022-07-29T05:49:57;37.50;27.25;17.50
73687;PMS7003;62257;48.376;-4.378;2022-07-29T05:52:22;27.00;24.25;15.75
73687;PMS7003;62257;48.376;-4.378;2022-07-29T05:54:48;34.25;29.25;19.25
73687;PMS7003;62257;48.376;-4.378;2022-07-29T05:57:20;34.00;29.00;20.00
73687;PMS7003;62257;48.376;-4.378;2022-07-29T05:59:47;42.25;31.75;20.50
73687;PMS7003;62257;48.376;-4.378;2022-07-29T06:02:14;29.75;26.00;18.00
73687;PMS7003;62257;48.376;-4.378;2022-07-29T06:04:39;30.00;28.00;19.50
73687;PMS7003;62257;48.376;-4.378;2022-07-29T06:07:05;29.50;27.75;19.50
73687;PMS7003;62257;48.376;-4.378;2022-07-29T06:09:31;36.50;32.00;20.00
73687;PMS7003;62257;48.376;-4.378;2022-07-29T06:11:56;29.75;29.25;19.75
73687;PMS7003;62257;48.376;-4.378;2022-07-29T06:14:23;30.00;27.25;20.00
73687;PMS7003;62257;48.376;-4.378;2022-07-29T06:16:49;31.00;25.75;18.00
73687;PMS7003;62257;48.376;-4.378;2022-07-29T06:19:14;33.25;28.00;19.75
73687;PMS7003;62257;48.376;-4.378;2022-07-29T06:21:43;34.00;31.25;20.00
73687;PMS7003;62257;48.376;-4.378;2022-07-29T06:24:10;33.00;29.50;20.00
73687;PMS7003;62257;48.376;-4.378;2022-07-29T06:26:37;30.00;24.00;17.75
73687;PMS7003;62257;48.376;-4.378;2022-07-29T06:29:02;30.00;28.00;18.50
73687;PMS7003;62257;48.376;-4.378;2022-07-29T06:31:27;28.25;25.25;18.25
73687;PMS7003;62257;48.376;-4.378;2022-07-29T06:33:53;33.25;30.75;20.50
73687;PMS7003;62257;48.376;-4.378;2022-07-29T06:36:18;33.75;29.50;20.00
73687;PMS7003;62257;48.376;-4.378;2022-07-29T06:38:44;32.00;30.00;18.25
73687;PMS7003;62257;48.376;-4.378;2022-07-29T06:41:09;26.25;24.50;16.25
73687;PMS7003;62257;48.376;-4.378;2022-07-29T06:43:40;30.75;27.50;17.75
73687;PMS7003;62257;48.376;-4.378;2022-07-29T06:46:08;27.25;26.50;19.50
73687;PMS7003;62257;48.376;-4.378;2022-07-29T06:48:38;30.75;28.00;20.00
73687;PMS7003;62257;48.376;-4.378;2022-07-29T06:51:04;34.50;31.75;22.00
73687;PMS7003;62257;48.376;-4.378;2022-07-29T06:53:31;31.75;30.00;20.00
73687;PMS7003;62257;48.376;-4.378;2022-07-29T06:55:58;32.50;27.25;19.50
73687;PMS7003;62257;48.376;-4.378;2022-07-29T06:58:25;35.00;30.25;20.25
73687;PMS7003;62257;48.376;-4.378;2022-07-29T07:00:51;36.50;27.75;19.00
73687;PMS7003;62257;48.376;-4.378;2022-07-29T07:03:16;31.25;27.25;19.50
73687;PMS7003;62257;48.376;-4.378;2022-07-29T07:05:43;26.50;23.75;19.25
73687;PMS7003;62257;48.376;-4.378;2022-07-29T07:08:09;35.75;30.25;20.75
73687;PMS7003;62257;48.376;-4.378;2022-07-29T07:10:35;31.50;28.00;17.25
73687;PMS7003;62257;48.376;-4.378;2022-07-29T07:13:02;27.50;24.50;17.25
73687;PMS7003;62257;48.376;-4.378;2022-07-29T07:15:29;30.75;27.75;18.25
73687;PMS7003;62257;48.376;-4.378;2022-07-29T07:17:54;30.25;27.75;18.75
73687;PMS7003;62257;48.376;-4.378;2022-07-29T07:20:20;30.00;23.75;16.50
73687;PMS7003;62257;48.376;-4.378;2022-07-29T07:22:45;25.25;22.25;16.00
73687;PMS7003;62257;48.376;-4.378;2022-07-29T07:25:11;27.00;25.00;19.00
73687;PMS7003;62257;48.376;-4.378;2022-07-29T07:27:37;25.75;19.25;14.75
73687;PMS7003;62257;48.376;-4.378;2022-07-29T07:30:03;22.50;19.75;14.75
73687;PMS7003;62257;48.376;-4.378;2022-07-29T07:32:33;21.00;19.25;14.50
73687;PMS7003;62257;48.376;-4.378;2022-07-29T07:34:59;20.50;20.50;15.75
73687;PMS7003;62257;48.376;-4.378;2022-07-29T07:37:25;17.25;15.00;8.75
73687;PMS7003;62257;48.376;-4.378;2022-07-29T07:39:51;19.50;19.00;14.25
73687;PMS7003;62257;48.376;-4.378;2022-07-29T07:42:17;23.75;20.50;14.75
73687;PMS7003;62257;48.376;-4.378;2022-07-29T07:44:42;17.75;16.00;11.75
73687;PMS7003;62257;48.376;-4.378;2022-07-29T07:47:08;19.75;16.50;11.50
73687;PMS7003;62257;48.376;-4.378;2022-07-29T07:49:33;19.75;19.50;13.50
73687;PMS7003;62257;48.376;-4.378;2022-07-29T07:51:59;17.25;16.00;12.75
73687;PMS7003;62257;48.376;-4.378;2022-07-29T07:54:24;15.75;14.25;11.00
73687;PMS7003;62257;48.376;-4.378;2022-07-29T07:56:50;14.75;13.50;10.25
73687;PMS7003;62257;48.376;-4.378;2022-07-29T07:59:16;16.50;12.75;9.75
73687;PMS7003;62257;48.376;-4.378;2022-07-29T08:01:42;16.00;12.75;10.25
73687;PMS7003;62257;48.376;-4.378;2022-07-29T08:04:07;14.00;13.25;10.50
73687;PMS7003;62257;48.376;-4.378;2022-07-29T08:06:34;12.00;12.00;9.25
73687;PMS7003;62257;48.376;-4.378;2022-07-29T08:09:00;14.50;14.50;11.00
73687;PMS7003;62257;48.376;-4.378;2022-07-29T08:11:26;16.25;14.75;11.50
73687;PMS7003;62257;48.376;-4.378;2022-07-29T08:13:52;13.75;12.75;10.25
73687;PMS7003;62257;48.376;-4.378;2022-07-29T08:16:17;13.00;12.75;9.75
73687;PMS7003;62257;48.376;-4.378;2022-07-29T08:18:44;14.25;12.75;10.50
73687;PMS7003;62257;48.376;-4.378;2022-07-29T08:21:10;15.50;14.75;11.75
73687;PMS7003;62257;48.376;-4.378;2022-07-29T08:23:37;15.25;12.00;9.25
73687;PMS7003;62257;48.376;-4.378;2022-07-29T08:26:11;14.75;12.25;10.00
73687;PMS7003;62257;48.376;-4.378;2022-07-29T08:28:38;13.50;12.75;10.50
73687;PMS7003;62257;48.376;-4.378;2022-07-29T08:31:05;13.75;11.50;7.75
73687;PMS7003;62257;48.376;-4.378;2022-07-29T08:33:31;15.00;12.75;9.50
73687;PMS7003;62257;48.376;-4.378;2022-07-29T08:35:57;17.50;11.25;8.25
73687;PMS7003;62257;48.376;-4.378;2022-07-29T08:38:22;12.75;12.75;10.00
73687;PMS7003;62257;48.376;-4.378;2022-07-29T08:40:47;14.00;11.75;8.25
73687;PMS7003;62257;48.376;-4.378;2022-07-29T08:43:14;12.00;11.50;9.50
73687;PMS7003;62257;48.376;-4.378;2022-07-29T08:45:41;11.75;9.75;7.00
73687;PMS7003;62257;48.376;-4.378;2022-07-29T08:48:11;13.00;12.25;10.00
73687;PMS7003;62257;48.376;-4.378;2022-07-29T08:50:38;15.75;10.00;7.00
73687;PMS7003;62257;48.376;-4.378;2022-07-29T08:53:07;12.75;11.25;8.25
73687;PMS7003;62257;48.376;-4.378;2022-07-29T08:55:36;10.50;9.50;7.50
73687;PMS7003;62257;48.376;-4.378;2022-07-29T08:58:05;11.75;8.75;7.00
73687;PMS7003;62257;48.376;-4.378;2022-07-29T09:00:31;11.75;11.75;8.75
73687;PMS7003;62257;48.376;-4.378;2022-07-29T09:02:57;10.00;7.50;6.25
73687;PMS7003;62257;48.376;-4.378;2022-07-29T09:05:24;10.75;9.25;7.00
73687;PMS7003;62257;48.376;-4.378;2022-07-29T09:07:51;10.50;8.50;8.25
73687;PMS7003;62257;48.376;-4.378;2022-07-29T09:10:17;6.25;6.25;5.00
73687;PMS7003;62257;48.376;-4.378;2022-07-29T09:12:43;5.75;5.00;4.00
73687;PMS7003;62257;48.376;-4.378;2022-07-29T09:15:08;6.00;5.00;4.00
73687;PMS7003;62257;48.376;-4.378;2022-07-29T09:17:40;7.75;7.75;6.00
73687;PMS7003;62257;48.376;-4.378;2022-07-29T09:20:10;6.00;6.00;5.00
73687;PMS7003;62257;48.376;-4.378;2022-07-29T09:22:38;8.00;6.25;5.00
73687;PMS7003;62257;48.376;-4.378;2022-07-29T09:25:03;6.75;6.75;4.75
73687;PMS7003;62257;48.376;-4.378;2022-07-29T09:27:29;8.00;6.00;5.00
73687;PMS7003;62257;48.376;-4.378;2022-07-29T09:29:55;4.25;4.25;3.75
73687;PMS7003;62257;48.376;-4.378;2022-07-29T09:32:22;5.00;5.00;4.00
73687;PMS7003;62257;48.376;-4.378;2022-07-29T09:34:47;3.25;3.25;3.00
73687;PMS7003;62257;48.376;-4.378;2022-07-29T09:37:25;3.00;3.00;3.00
73687;PMS7003;62257;48.376;-4.378;2022-07-29T09:39:51;1.50;1.00;1.00
73687;PMS7003;62257;48.376;-4.378;2022-07-29T09:42:26;3.50;3.50;2.00
73687;PMS7003;62257;48.376;-4.378;2022-07-29T09:44:53;3.25;2.75;2.00
73687;PMS7003;62257;48.376;-4.378;2022-07-29T09:47:18;5.25;5.00;4.00
73687;PMS7003;62257;48.376;-4.378;2022-07-29T09:50:04;4.00;4.00;4.00
73687;PMS7003;62257;48.376;-4.378;2022-07-29T09:52:30;5.25;5.25;4.50
73687;PMS7003;62257;48.376;-4.378;2022-07-29T09:55:05;8.00;5.00;5.00
73687;PMS7003;62257;48.376;-4.378;2022-07-29T09:57:32;4.75;4.25;4.00
73687;PMS7003;62257;48.376;-4.378;2022-07-29T10:00:01;3.75;3.25;3.00
73687;PMS7003;62257;48.376;-4.378;2022-07-29T10:02:36;6.50;5.00;4.75
73687;PMS7003;62257;48.376;-4.378;2022-07-29T10:05:04;4.00;4.00;3.00
73687;PMS7003;62257;48.376;-4.378;2022-07-29T10:07:44;5.75;5.75;5.00
73687;PMS7003;62257;48.376;-4.378;2022-07-29T10:10:17;5.25;5.00;4.75
73687;PMS7003;62257;48.376;-4.378;2022-07-29T10:12:48;4.00;3.50;3.00
73687;PMS7003;62257;48.376;-4.378;2022-07-29T10:15:24;5.00;3.75;3.00
73687;PMS7003;62257;48.376;-4.378;2022-07-29T10:17:52;6.00;3.50;3.00
73687;PMS7003;62257;48.376;-4.378;2022-07-29T10:20:19;3.25;3.25;2.50
73687;PMS7003;62257;48.376;-4.378;2022-07-29T10:22:46;4.25;3.50;3.00
73687;PMS7003;62257;48.376;-4.378;2022-07-29T10:25:13;3.50;3.50;3.50
73687;PMS7003;62257;48.376;-4.378;2022-07-29T10:27:39;4.75;2.75;2.00
73687;PMS7003;62257;48.376;-4.378;2022-07-29T10:30:05;4.25;3.75;3.00
73687;PMS7003;62257;48.376;-4.378;2022-07-29T10:32:34;2.75;2.75;2.50
73687;PMS7003;62257;48.376;-4.378;2022-07-29T10:35:29;4.75;3.25;3.25
73687;PMS7003;62257;48.376;-4.378;2022-07-29T10:43:40;0.00;0.00;0.00
73687;PMS7003;62257;48.376;-4.378;2022-07-29T10:46:08;4.00;3.75;3.00
73687;PMS7003;62257;48.376;-4.378;2022-07-29T10:49:03;6.00;5.00;3.50
73687;PMS7003;62257;48.376;-4.378;2022-07-29T11:05:34;7.00;6.00;5.00
73687;PMS7003;62257;48.376;-4.378;2022-07-29T11:10:42;4.75;4.00;4.00
73687;PMS7003;62257;48.376;-4.378;2022-07-29T11:13:08;5.00;5.00;5.00
73687;PMS7003;62257;48.376;-4.378;2022-07-29T11:15:51;4.00;4.00;3.00
73687;PMS7003;62257;48.376;-4.378;2022-07-29T11:18:22;6.25;6.00;5.00
73687;PMS7003;62257;48.376;-4.378;2022-07-29T11:20:48;7.00;5.00;4.00
73687;PMS7003;62257;48.376;-4.378;2022-07-29T11:25:43;3.75;3.00;2.50
73687;PMS7003;62257;48.376;-4.378;2022-07-29T11:28:19;5.75;5.00;4.00
73687;PMS7003;62257;48.376;-4.378;2022-07-29T11:30:48;7.00;5.50;4.25
73687;PMS7003;62257;48.376;-4.378;2022-07-29T11:33:30;5.00;5.00;4.00
73687;PMS7003;62257;48.376;-4.378;2022-07-29T11:38:52;4.50;4.00;3.25
73687;PMS7003;62257;48.376;-4.378;2022-07-29T11:41:52;3.00;3.00;3.00
73687;PMS7003;62257;48.376;-4.378;2022-07-29T11:44:18;5.00;3.00;3.00
73687;PMS7003;62257;48.376;-4.378;2022-07-29T11:47:24;4.00;4.00;3.00
73687;PMS7003;62257;48.376;-4.378;2022-07-29T11:49:51;4.50;4.50;4.00
73687;PMS7003;62257;48.376;-4.378;2022-07-29T11:52:17;6.50;4.50;4.00
73687;PMS7003;62257;48.376;-4.378;2022-07-29T11:54:43;5.00;4.50;4.00
73687;PMS7003;62257;48.376;-4.378;2022-07-29T11:57:12;5.75;4.75;3.50
73687;PMS7003;62257;48.376;-4.378;2022-07-29T11:59:39;5.00;3.00;3.00
73687;PMS7003;62257;48.376;-4.378;2022-07-29T12:02:06;4.25;3.75;3.00
73687;PMS7003;62257;48.376;-4.378;2022-07-29T12:04:33;6.25;4.00;3.75
73687;PMS7003;62257;48.376;-4.378;2022-07-29T12:06:58;3.50;3.50;3.00
73687;PMS7003;62257;48.376;-4.378;2022-07-29T12:09:24;3.25;3.25;3.00
73687;PMS7003;62257;48.376;-4.378;2022-07-29T12:11:55;4.00;4.00;3.50
73687;PMS7003;62257;48.376;-4.378;2022-07-29T12:14:25;4.75;4.00;4.00
73687;PMS7003;62257;48.376;-4.378;2022-07-29T12:16:54;4.25;4.25;3.50
73687;PMS7003;62257;48.376;-4.378;2022-07-29T12:19:20;7.00;7.00;5.75
73687;PMS7003;62257;48.376;-4.378;2022-07-29T12:21:46;4.00;4.00;3.50
73687;PMS7003;62257;48.376;-4.378;2022-07-29T12:24:13;21.00;10.50;7.50
73687;PMS7003;62257;48.376;-4.378;2022-07-29T12:29:19;6.25;6.25;5.50
73687;PMS7003;62257;48.376;-4.378;2022-07-29T12:31:45;8.25;7.25;5.25
73687;PMS7003;62257;48.376;-4.378;2022-07-29T12:34:12;6.00;5.50;4.00
73687;PMS7003;62257;48.376;-4.378;2022-07-29T12:36:39;6.00;6.00;5.00
73687;PMS7003;62257;48.376;-4.378;2022-07-29T12:39:05;7.00;7.00;5.75
73687;PMS7003;62257;48.376;-4.378;2022-07-29T12:41:31;6.00;5.00;4.75
73687;PMS7003;62257;48.376;-4.378;2022-07-29T12:43:57;5.25;5.25;5.00
73687;PMS7003;62257;48.376;-4.378;2022-07-29T12:46:23;4.00;4.00;4.00
73687;PMS7003;62257;48.376;-4.378;2022-07-29T12:48:53;6.75;5.00;5.00
73687;PMS7003;62257;48.376;-4.378;2022-07-29T12:51:27;5.00;4.25;3.00
73687;PMS7003;62257;48.376;-4.378;2022-07-29T12:56:36;5.00;5.00;4.00
73687;PMS7003;62257;48.376;-4.378;2022-07-29T12:59:13;5.25;4.50;4.25
73687;PMS7003;62257;48.376;-4.378;2022-07-29T13:01:40;7.75;6.50;5.50
73687;PMS7003;62257;48.376;-4.378;2022-07-29T13:04:06;6.00;5.50;5.00
73687;PMS7003;62257;48.376;-4.378;2022-07-29T13:09:09;5.25;5.25;4.25
73687;PMS7003;62257;48.376;-4.378;2022-07-29T13:14:04;7.00;6.25;4.25
73687;PMS7003;62257;48.376;-4.378;2022-07-29T13:16:31;6.00;5.00;4.25
73687;PMS7003;62257;48.376;-4.378;2022-07-29T13:19:03;4.25;4.25;3.25
73687;PMS7003;62257;48.376;-4.378;2022-07-29T13:21:36;5.75;5.75;5.00
73687;PMS7003;62257;48.376;-4.378;2022-07-29T13:24:04;5.75;5.75;5.00
73687;PMS7003;62257;48.376;-4.378;2022-07-29T13:26:30;5.25;4.75;4.00
73687;PMS7003;62257;48.376;-4.378;2022-07-29T13:28:56;5.50;5.00;4.00
73687;PMS7003;62257;48.376;-4.378;2022-07-29T13:31:22;8.00;6.00;5.25
73687;PMS7003;62257;48.376;-4.378;2022-07-29T13:33:48;5.75;4.50;3.75
73687;PMS7003;62257;48.376;-4.378;2022-07-29T13:36:13;8.25;6.00;5.50
73687;PMS7003;62257;48.376;-4.378;2022-07-29T13:38:38;5.25;5.25;4.75
73687;PMS7003;62257;48.376;-4.378;2022-07-29T13:41:04;10.25;7.00;5.00
73687;PMS7003;62257;48.376;-4.378;2022-07-29T13:43:30;4.00;4.00;3.00
73687;PMS7003;62257;48.376;-4.378;2022-07-29T13:45:55;4.50;4.50;4.00
73687;PMS7003;62257;48.376;-4.378;2022-07-29T13:48:21;5.25;4.75;4.25
73687;PMS7003;62257;48.376;-4.378;2022-07-29T13:50:46;6.00;4.00;4.00
73687;PMS7003;62257;48.376;-4.378;2022-07-29T13:53:12;3.00;3.00;2.50
73687;PMS7003;62257;48.376;-4.378;2022-07-29T13:55:38;5.25;5.25;5.00
73687;PMS7003;62257;48.376;-4.378;2022-07-29T13:58:03;6.00;6.00;5.00
73687;PMS7003;62257;48.376;-4.378;2022-07-29T14:00:29;4.00;4.00;3.75
73687;PMS7003;62257;48.376;-4.378;2022-07-29T14:02:55;6.25;6.25;5.25
73687;PMS7003;62257;48.376;-4.378;2022-07-29T14:05:20;5.25;5.25;5.25
73687;PMS7003;62257;48.376;-4.378;2022-07-29T14:07:46;4.75;4.25;4.00
73687;PMS7003;62257;48.376;-4.378;2022-07-29T14:10:11;5.00;4.00;3.75
73687;PMS7003;62257;48.376;-4.378;2022-07-29T14:12:37;3.50;3.50;3.00
73687;PMS7003;62257;48.376;-4.378;2022-07-29T14:15:03;5.00;5.00;4.00
73687;PMS7003;62257;48.376;-4.378;2022-07-29T14:17:28;4.00;0.50;0.50
73687;PMS7003;62257;48.376;-4.378;2022-07-29T14:19:54;8.00;6.25;5.25
73687;PMS7003;62257;48.376;-4.378;2022-07-29T14:22:19;5.00;5.00;4.00
73687;PMS7003;62257;48.376;-4.378;2022-07-29T14:24:45;2.00;2.00;2.00
73687;PMS7003;62257;48.376;-4.378;2022-07-29T14:27:10;4.00;4.00;3.00
73687;PMS7003;62257;48.376;-4.378;2022-07-29T14:29:36;6.25;5.25;4.25
73687;PMS7003;62257;48.376;-4.378;2022-07-29T14:32:01;4.50;4.00;3.00
73687;PMS7003;62257;48.376;-4.378;2022-07-29T14:34:27;4.00;4.00;3.00
73687;PMS7003;62257;48.376;-4.378;2022-07-29T14:36:53;4.00;4.00;3.00
73687;PMS7003;62257;48.376;-4.378;2022-07-29T14:39:21;4.25;4.00;4.00
73687;PMS7003;62257;48.376;-4.378;2022-07-29T14:41:47;4.00;4.00;4.00
73687;PMS7003;62257;48.376;-4.378;2022-07-29T14:44:13;4.50;3.00;2.50
73687;PMS7003;62257;48.376;-4.378;2022-07-29T14:46:39;4.00;3.75;3.25